Time;durP1;ratioP1;P1;durP2;ratioP2;P2;SDS_P1;SDS_P2;PMS_P1;PMS_P2;Temp;Humidity;BMP_temperature;BMP_pressure;BME280_temperature;BME280_humidity;BME280_pressure;Samples;Min_cycle;Max_cycle;Signal;HPM_P1;HPM_P2
2022/07/18 00:03:48;;;;;;;6.80;3.57;;;;;;;16.36;72.01;101617.21;5217027;56;1141171;-67
2022/07/18 00:08:55;;;;;;;3.87;3.03;;;;;;;16.40;71.85;101617.80;5217092;56;1139039;-66
2022/07/18 00:14:01;;;;;;;7.97;3.30;;;;;;;16.45;71.79;101617.78;5217091;56;1139311;-66
2022/07/18 00:19:07;;;;;;;5.37;2.60;;;;;;;16.48;71.99;101616.20;5182690;56;1139041;-66
2022/07/18 00:24:13;;;;;;;6.43;2.77;;;;;;;16.46;72.08;101617.30;5203516;56;1139316;-67
2022/07/18 00:29:19;;;;;;;3.93;1.87;;;;;;;16.43;72.26;101608.20;5217065;56;1139052;-67
2022/07/18 00:34:25;;;;;;;6.33;3.03;;;;;;;16.27;71.55;101597.98;5217075;56;1138896;-67
2022/07/18 00:39:33;;;;;;;2.83;2.37;;;;;;;16.01;71.90;101593.98;5217194;56;1139079;-67
2022/07/18 00:44:38;;;;;;;4.70;2.67;;;;;;;15.99;73.05;101597.27;5190613;56;1139131;-67
2022/07/18 00:49:44;;;;;;;6.77;3.20;;;;;;;15.99;72.95;101592.78;5230604;56;1139015;-66
2022/07/18 00:54:50;;;;;;;5.97;2.67;;;;;;;15.95;73.21;101595.33;5220152;56;1139029;-67
2022/07/18 01:05:21;;;;;;;2.70;2.50;;;;;;;16.00;73.39;101602.48;5221584;56;1139331;-66
2022/07/18 01:10:28;;;;;;;5.80;2.83;;;;;;;15.95;73.35;101603.34;5221539;56;1139322;-66
2022/07/18 01:15:34;;;;;;;4.47;2.83;;;;;;;15.95;73.60;101605.16;5178025;56;1139082;-66
2022/07/18 01:20:40;;;;;;;8.93;2.97;;;;;;;15.90;73.66;101610.02;5067401;58;1139062;-67
2022/07/18 01:25:46;;;;;;;8.73;3.63;;;;;;;15.83;73.61;101613.21;5242229;56;1139042;-66
2022/07/18 01:30:52;;;;;;;3.20;2.20;;;;;;;15.80;74.16;101612.61;5242164;56;1139354;-66
2022/07/18 01:36:01;;;;;;;3.63;2.67;;;;;;;15.59;73.46;101616.53;5242206;56;1139323;-67
2022/07/18 01:41:08;;;;;;;6.20;2.30;;;;;;;15.49;74.35;101616.89;5241280;56;1139159;-67
2022/07/18 01:46:14;;;;;;;4.73;2.67;;;;;;;15.37;74.34;101613.89;5181614;56;1139295;-67
2022/07/18 01:51:20;;;;;;;2.40;1.93;;;;;;;15.40;75.19;101614.98;5242220;56;1139328;-67
2022/07/18 01:56:26;;;;;;;5.67;3.23;;;;;;;15.46;75.56;101617.98;5187340;56;1139311;-67
2022/07/18 02:01:32;;;;;;;3.70;2.63;;;;;;;15.39;75.16;101610.13;5161341;56;1139391;-67
2022/07/18 02:06:38;;;;;;;4.47;2.47;;;;;;;15.26;75.37;101609.91;5161318;56;1137003;-67
2022/07/18 02:11:44;;;;;;;7.63;2.80;;;;;;;15.24;75.73;101611.84;5161311;56;1136943;-66
2022/07/18 02:16:50;;;;;;;5.70;2.43;;;;;;;15.24;75.90;101606.52;5161234;57;1137378;-66
2022/07/18 02:21:55;;;;;;;4.37;2.20;;;;;;;15.26;76.21;101610.76;5177792;56;1136997;-66
2022/07/18 02:27:01;;;;;;;5.93;2.47;;;;;;;15.24;76.14;101609.18;5216749;56;1137062;-67
2022/07/18 02:32:08;;;;;;;3.30;2.27;;;;;;;15.24;75.97;101604.70;5216718;56;1137130;-66
2022/07/18 02:37:14;;;;;;;2.27;2.07;;;;;;;15.17;75.44;101608.80;5211656;56;1137280;-67
2022/07/18 02:42:20;;;;;;;15.53;5.33;;;;;;;14.88;75.31;101616.92;5215304;56;1137327;-66
2022/07/18 02:47:26;;;;;;;11.57;4.50;;;;;;;14.58;75.82;101616.15;5190701;56;1139021;-67
2022/07/18 02:52:32;;;;;;;6.97;3.17;;;;;;;14.35;76.57;101621.41;5232588;56;1139006;-66
2022/07/18 02:57:39;;;;;;;8.40;3.60;;;;;;;14.26;77.49;101622.56;5199978;56;1136974;-67
2022/07/18 03:02:47;;;;;;;8.83;3.47;;;;;;;14.16;78.17;101611.78;5221060;56;1136985;-66
2022/07/18 03:07:53;;;;;;;5.07;2.50;;;;;;;14.24;78.59;101612.51;5179825;56;1137020;-67
2022/07/18 03:12:59;;;;;;;7.97;3.10;;;;;;;14.29;78.84;101606.37;5155447;57;1137188;-66
2022/07/18 03:18:05;;;;;;;5.30;3.20;;;;;;;14.46;79.77;101611.30;5136948;57;1136912;-67
2022/07/18 03:23:11;;;;;;;17.20;5.30;;;;;;;14.39;78.82;101607.36;5172895;56;1136960;-67
2022/07/18 03:28:17;;;;;;;9.67;4.63;;;;;;;14.24;79.04;101601.39;5201757;56;1139105;-66
2022/07/18 03:33:22;;;;;;;9.47;3.80;;;;;;;14.07;79.61;101606.64;5221074;56;1134870;-66
2022/07/18 03:38:28;;;;;;;5.20;2.70;;;;;;;14.07;80.31;101611.11;5189797;56;1134916;-66
2022/07/18 03:43:34;;;;;;;4.33;2.33;;;;;;;14.01;80.40;101606.27;5173956;56;1139043;-67
2022/07/18 03:48:39;;;;;;;4.27;2.87;;;;;;;14.13;81.24;101611.15;5233295;56;1139035;-66
2022/07/18 03:53:46;;;;;;;4.60;2.40;;;;;;;14.18;80.81;101616.50;5233431;56;1139000;-67
2022/07/18 03:58:52;;;;;;;4.50;2.43;;;;;;;14.17;80.80;101616.13;5221363;56;1139002;-66
2022/07/18 04:03:58;;;;;;;6.43;2.57;;;;;;;14.11;81.00;101613.92;5185015;56;1139037;-66
2022/07/18 04:09:04;;;;;;;9.53;2.80;;;;;;;14.06;81.36;101609.42;5198383;56;1138969;-67
2022/07/18 04:14:11;;;;;;;4.23;2.40;;;;;;;14.04;81.73;101611.38;5156208;56;1139033;-66
2022/07/18 04:19:17;;;;;;;7.00;2.90;;;;;;;14.09;82.53;101602.55;5155647;56;1139123;-66
2022/07/18 04:24:22;;;;;;;4.80;2.70;;;;;;;14.16;82.98;101598.95;5212834;56;1138976;-66
2022/07/18 04:29:31;;;;;;;7.03;2.87;;;;;;;14.28;83.48;101594.02;5242506;56;1139123;-66
2022/07/18 04:34:36;;;;;;;4.37;2.27;;;;;;;14.29;82.97;101591.73;5169661;56;1139010;-66
2022/07/18 04:39:43;;;;;;;7.33;2.57;;;;;;;14.32;83.17;101589.70;5155925;57;1138971;-66
2022/07/18 04:44:49;;;;;;;6.57;3.03;;;;;;;14.43;83.34;101591.08;5201244;56;1139601;-66
2022/07/18 04:49:56;;;;;;;5.13;3.17;;;;;;;14.57;83.87;101597.15;5238632;56;1138977;-66
2022/07/18 04:55:02;;;;;;;12.67;2.60;;;;;;;14.59;84.09;101596.07;5168708;56;1139248;-67
2022/07/18 05:00:21;;;;;;;6.70;3.60;;;;;;;14.72;84.84;101595.48;5155966;56;1141108;-67
2022/07/18 05:05:29;;;;;;;4.20;2.37;;;;;;;14.91;84.73;101597.55;5139285;56;1138939;-66
2022/07/18 05:10:35;;;;;;;3.53;2.40;;;;;;;15.13;83.57;101596.20;5155966;56;1139114;-66
2022/07/18 05:15:41;;;;;;;6.47;2.30;;;;;;;15.34;83.09;101596.31;5155830;56;1139170;-67
2022/07/18 05:20:48;;;;;;;6.90;2.47;;;;;;;15.52;82.56;101599.31;5161823;56;1139203;-67
2022/07/18 05:25:53;;;;;;;6.80;2.13;;;;;;;15.68;82.24;101598.95;5242234;56;1138996;-67
2022/07/18 05:31:00;;;;;;;3.70;2.20;;;;;;;15.79;82.11;101594.91;5210577;56;1139018;-66
2022/07/18 05:36:07;;;;;;;2.37;1.80;;;;;;;15.92;82.14;101600.92;5242330;56;1139040;-66
2022/07/18 05:41:13;;;;;;;2.90;2.13;;;;;;;16.01;81.51;101600.17;5210429;56;1139052;-66
2022/07/18 05:46:19;;;;;;;5.03;1.60;;;;;;;16.16;81.47;101606.05;5181400;56;1139177;-67
2022/07/18 05:51:25;;;;;;;6.20;2.33;;;;;;;16.29;81.07;101606.70;5242133;56;1139214;-66
2022/07/18 05:56:31;;;;;;;1.90;1.70;;;;;;;16.36;80.77;101596.34;5153519;56;1138986;-66
2022/07/18 06:01:37;;;;;;;7.63;2.00;;;;;;;16.52;80.49;101592.72;5155567;57;1139073;-67
2022/07/18 06:06:44;;;;;;;2.60;1.73;;;;;;;16.64;79.93;101593.06;5155631;56;1139252;-67
2022/07/18 06:11:50;;;;;;;4.90;1.90;;;;;;;16.82;79.35;101586.59;5155545;57;1139110;-66
2022/07/18 06:16:57;;;;;;;5.60;1.80;;;;;;;16.98;78.59;101592.30;5150923;57;1138975;-66
2022/07/18 06:22:04;;;;;;;4.00;1.83;;;;;;;17.09;77.79;101584.20;5158041;57;1138994;-67
2022/07/18 06:27:09;;;;;;;4.50;1.77;;;;;;;17.21;77.98;101591.13;5096174;57;1139099;-66
2022/07/18 06:32:15;;;;;;;6.43;1.97;;;;;;;17.30;77.34;101581.92;5163178;57;1139142;-66
2022/07/18 06:37:21;;;;;;;6.03;1.80;;;;;;;17.36;76.48;101576.05;5163215;56;1139354;-66
2022/07/18 06:42:27;;;;;;;2.33;2.03;;;;;;;17.43;76.46;101575.34;5159728;57;1139064;-66
2022/07/18 06:47:32;;;;;;;4.10;1.60;;;;;;;17.55;76.36;101577.43;5109526;57;1136993;-66
2022/07/18 06:52:40;;;;;;;2.00;1.63;;;;;;;17.68;75.95;101581.20;5129711;57;1136978;-66
2022/07/18 06:57:46;;;;;;;7.10;1.90;;;;;;;17.86;75.94;101584.40;5079500;57;1137239;-66
2022/07/18 07:02:52;;;;;;;4.08;1.96;;;;;;;18.01;75.73;101578.12;5159800;57;1137271;-67
2022/07/18 07:07:58;;;;;;;3.70;1.83;;;;;;;18.15;75.51;101583.55;5161032;57;1137281;-67
2022/07/18 07:13:04;;;;;;;4.70;1.60;;;;;;;18.22;74.59;101578.80;5161229;57;1137311;-66
2022/07/18 07:18:10;;;;;;;3.23;1.27;;;;;;;18.24;73.57;101574.64;5161347;56;1136969;-67
2022/07/18 07:23:16;;;;;;;2.07;1.67;;;;;;;18.32;73.46;101570.77;5160533;57;1136970;-67
2022/07/18 07:28:23;;;;;;;2.07;1.60;;;;;;;18.38;73.32;101563.48;5161383;56;1137008;-68
2022/07/18 07:33:29;;;;;;;2.93;1.80;;;;;;;18.55;73.65;101561.41;5160305;56;1136941;-66
2022/07/18 07:38:35;;;;;;;3.37;1.60;;;;;;;18.70;73.72;101565.83;5160921;57;1137114;-67
2022/07/18 07:43:41;;;;;;;3.85;1.70;;;;;;;18.82;72.70;101566.48;5186353;56;1137092;-66
2022/07/18 07:48:47;;;;;;;2.26;1.46;;;;;;;18.92;71.48;101564.64;5199804;56;1137139;-67
2022/07/18 07:53:53;;;;;;;6.30;2.03;;;;;;;19.04;71.44;101569.30;5200141;56;1137016;-67
2022/07/18 07:59:00;;;;;;;3.10;1.53;;;;;;;19.14;71.41;101559.36;5241611;56;1136949;-66
2022/07/18 08:04:06;;;;;;;2.25;1.90;;;;;;;19.25;70.24;101563.17;5173628;56;1137450;-67
2022/07/18 08:09:12;;;;;;;7.65;1.87;;;;;;;19.20;69.45;101567.67;5161707;57;1137276;-67
2022/07/18 08:14:19;;;;;;;2.00;1.25;;;;;;;19.30;70.00;101567.11;5161776;57;1135184;-66
2022/07/18 08:19:26;;;;;;;7.37;1.30;;;;;;;19.42;69.36;101569.08;5161796;57;1135322;-67
2022/07/18 08:24:31;;;;;;;2.52;1.42;;;;;;;19.55;68.38;101563.41;5162032;57;1139006;-66
2022/07/18 08:29:37;;;;;;;2.57;1.50;;;;;;;19.80;68.82;101565.33;5161847;56;1138965;-66
2022/07/18 08:34:43;;;;;;;2.53;1.73;;;;;;;20.08;67.53;101554.48;5161829;57;1138962;-67
2022/07/18 08:39:49;;;;;;;4.37;1.57;;;;;;;20.43;64.99;101557.64;5161901;57;1138988;-67
2022/07/18 08:44:57;;;;;;;3.35;1.45;;;;;;;20.74;62.37;101553.47;5165452;56;1139036;-66
2022/07/18 08:50:03;;;;;;;3.20;1.70;;;;;;;21.04;61.95;101552.09;5161235;57;1139054;-67
2022/07/18 08:55:10;;;;;;;2.30;1.50;;;;;;;21.33;60.49;101540.45;5161583;56;1139068;-67
2022/07/18 09:00:18;;;;;;;3.30;1.42;;;;;;;21.71;59.08;101544.89;5216638;56;1139043;-67
2022/07/18 09:05:24;;;;;;;1.85;1.75;;;;;;;21.96;58.50;101537.18;5242390;56;1139562;-67
2022/07/18 09:10:35;;;;;;;6.03;1.87;;;;;;;22.22;57.76;101541.06;5242242;56;1139010;-67
2022/07/18 09:16:06;;;;;;;1.33;1.17;;;;;;;22.36;56.71;101541.72;5152614;56;1139039;-67
2022/07/18 09:21:18;;;;;;;3.47;1.50;;;;;;;22.37;55.07;101539.86;5044438;57;1138952;-66
2022/07/18 09:26:46;;;;;;;3.37;1.70;;;;;;;22.29;53.13;101539.89;5163847;57;1139143;-67
2022/07/18 09:31:54;;;;;;;3.20;1.42;;;;;;;22.31;54.63;101540.03;5163714;57;1139081;-67
2022/07/18 09:36:59;;;;;;;4.33;1.00;;;;;;;22.38;54.09;101533.46;5163626;57;1139288;-67
2022/07/18 09:42:16;;;;;;;6.28;1.40;;;;;;;22.51;52.48;101532.92;5103988;57;1139067;-67
2022/07/18 09:47:22;;;;;;;8.08;1.30;;;;;;;22.59;53.93;101534.27;5046066;58;1139078;-67
2022/07/18 09:52:28;;;;;;;2.15;1.07;;;;;;;22.58;51.91;101537.47;5079089;58;1139074;-67
2022/07/18 09:57:36;;;;;;;3.52;1.42;;;;;;;22.59;52.95;101531.58;5075364;57;1139036;-68
2022/07/18 10:02:43;;;;;;;2.85;1.27;;;;;;;22.68;52.29;101535.41;5143960;56;1139027;-67
2022/07/18 10:07:49;;;;;;;2.22;1.60;;;;;;;22.82;52.01;101530.34;5242211;56;1139093;-67
2022/07/18 10:13:01;;;;;;;3.80;1.40;;;;;;;22.98;52.68;101522.18;5242155;56;1139100;-67
2022/07/18 10:18:10;;;;;;;4.58;1.40;;;;;;;23.18;52.01;101515.34;5242386;56;1139057;-67
2022/07/18 10:23:24;;;;;;;2.27;1.22;;;;;;;23.47;51.15;101513.31;5192737;56;1137004;-67
2022/07/18 10:28:30;;;;;;;4.70;2.12;;;;;;;23.83;49.00;101513.59;5155759;57;1136987;-67
2022/07/18 10:33:48;;;;;;;1.90;1.37;;;;;;;24.03;47.06;101515.26;5155628;57;1136493;-67
2022/07/18 10:39:25;;;;;;;10.13;1.87;;;;;;;23.95;46.86;101512.64;5155459;56;1136881;-68
2022/07/18 10:44:39;;;;;;;3.77;1.90;;;;;;;24.06;47.66;101506.28;5187800;56;1139167;-68
2022/07/18 10:49:57;;;;;;;4.03;2.12;;;;;;;24.42;47.99;101497.52;5241895;56;1136950;-67
2022/07/18 10:55:16;;;;;;;1.87;1.35;;;;;;;24.66;45.35;101501.80;5228149;56;1139018;-67
2022/07/18 11:00:35;;;;;;;7.13;1.60;;;;;;;24.90;46.95;101500.16;5235962;56;1138965;-68
2022/07/18 11:05:52;;;;;;;2.35;1.67;;;;;;;25.06;45.48;101495.89;5186601;56;1139013;-68
2022/07/18 11:11:04;;;;;;;3.08;1.50;;;;;;;25.08;44.12;101482.16;5181443;56;1138993;-67
2022/07/18 11:16:17;;;;;;;4.22;1.98;;;;;;;25.10;44.59;101476.89;5216979;56;1139044;-68
2022/07/18 11:21:29;;;;;;;6.55;1.52;;;;;;;25.08;43.85;101484.36;5205985;56;1139048;-68
2022/07/18 11:26:39;;;;;;;7.00;1.90;;;;;;;24.87;43.67;101483.78;5161305;57;1139016;-68
2022/07/18 11:31:59;;;;;;;7.17;1.80;;;;;;;24.97;45.00;101469.12;5173856;56;1139166;-68
2022/07/18 11:37:06;;;;;;;3.60;1.70;;;;;;;25.27;46.08;101464.47;5247703;56;1139032;-68
2022/07/18 11:42:12;;;;;;;3.83;2.05;;;;;;;25.51;43.75;101457.34;5247890;56;1139022;-68
2022/07/18 11:47:18;;;;;;;2.05;1.85;;;;;;;25.66;44.50;101455.42;5188318;56;1139093;-68
2022/07/18 11:52:24;;;;;;;6.28;1.42;;;;;;;25.92;43.21;101449.38;5200476;56;1139026;-68
2022/07/18 11:57:32;;;;;;;2.12;1.55;;;;;;;26.10;41.34;101451.08;5161111;57;1138971;-65
2022/07/18 12:03:16;;;;;;;1.90;1.42;;;;;;;26.19;41.32;101433.61;5160651;57;1139022;-65
2022/07/18 12:08:51;;;;;;;1.90;1.30;;;;;;;26.35;40.14;101427.57;5213425;56;1139074;-65
2022/07/18 12:14:10;;;;;;;1.40;1.30;;;;;;;26.43;41.27;101429.59;5220598;56;1137175;-66
2022/07/18 12:19:24;;;;;;;3.95;1.50;;;;;;;26.57;41.49;101423.22;5165392;56;1137038;-66
2022/07/18 12:24:34;;;;;;;2.65;1.20;;;;;;;26.76;41.56;101408.03;5168368;56;1137030;-65
2022/07/18 12:30:11;;;;;;;5.22;1.55;;;;;;;26.92;40.54;101410.90;5155419;56;1137024;-65
2022/07/18 12:35:26;;;;;;;2.12;1.57;;;;;;;26.98;39.41;101405.22;5156455;56;1134956;-65
2022/07/18 12:40:48;;;;;;;4.00;1.50;;;;;;;27.07;40.02;101391.75;5156140;57;1139122;-65
2022/07/18 12:45:56;;;;;;;2.60;1.42;;;;;;;27.12;40.14;101394.69;5219067;56;1139008;-65
2022/07/18 12:51:08;;;;;;;3.75;1.35;;;;;;;27.17;40.86;101400.35;5242300;56;1139331;-65
2022/07/18 12:56:14;;;;;;;1.72;1.62;;;;;;;27.45;41.16;101399.64;5223308;56;1139315;-65
2022/07/18 13:01:19;;;;;;;2.98;1.70;;;;;;;27.74;40.08;101386.18;5220845;56;1139176;-65
2022/07/18 13:06:25;;;;;;;2.83;1.62;;;;;;;27.86;38.72;101379.58;5216297;56;1139321;-65
2022/07/18 13:11:31;;;;;;;2.70;1.25;;;;;;;27.89;36.61;101373.20;5195701;56;1139136;-65
2022/07/18 13:16:37;;;;;;;4.03;1.57;;;;;;;27.78;36.80;101375.20;5153867;57;1138991;-65
2022/07/18 13:21:45;;;;;;;4.00;1.52;;;;;;;27.69;38.79;101375.62;5153913;57;1139005;-65
2022/07/18 13:26:50;;;;;;;1.32;0.98;;;;;;;27.73;38.30;101366.84;5153799;56;1139292;-65
2022/07/18 13:31:56;;;;;;;1.57;1.17;;;;;;;27.89;38.61;101369.11;5153802;57;1139063;-65
2022/07/18 13:37:02;;;;;;;1.55;1.17;;;;;;;27.87;37.23;101366.29;5154012;57;1139073;-65
2022/07/18 13:42:07;;;;;;;2.35;2.02;;;;;;;27.82;39.50;101360.64;5154125;57;1139042;-66
2022/07/18 13:47:15;;;;;;;1.62;1.50;;;;;;;27.62;38.22;101371.05;5147493;56;1139065;-65
2022/07/18 13:52:21;;;;;;;3.65;1.10;;;;;;;27.65;40.43;101364.36;5228601;56;1139130;-65
2022/07/18 13:57:28;;;;;;;3.77;1.67;;;;;;;27.91;38.62;101356.67;5177753;56;1138990;-67
2022/07/18 14:02:35;;;;;;;1.45;1.20;;;;;;;27.92;39.98;101356.98;5165182;56;1139014;-67
2022/07/18 14:07:43;;;;;;;2.85;1.27;;;;;;;28.03;37.18;101353.60;5153781;57;1139094;-67
2022/07/18 14:12:49;;;;;;;2.22;1.57;;;;;;;27.92;38.29;101355.63;5153178;57;1139005;-67
2022/07/18 14:17:54;;;;;;;4.22;1.62;;;;;;;27.93;37.07;101345.06;5153750;57;1139123;-68
2022/07/18 14:23:00;;;;;;;1.40;1.27;;;;;;;27.71;38.55;101337.67;5186379;56;1139194;-67
2022/07/18 14:28:06;;;;;;;4.22;1.62;;;;;;;27.61;38.80;101348.98;5155416;57;1139089;-67
2022/07/18 14:33:12;;;;;;;6.72;2.15;;;;;;;27.52;36.75;101354.27;5155468;57;1139137;-68
2022/07/18 14:38:17;;;;;;;5.60;1.72;;;;;;;27.45;37.54;101352.62;5155425;57;1139030;-67
2022/07/18 14:43:23;;;;;;;2.65;2.08;;;;;;;27.44;38.08;101350.42;5155396;57;1139452;-67
2022/07/18 14:48:29;;;;;;;1.75;1.65;;;;;;;27.38;37.87;101351.25;5193483;56;1139259;-67
2022/07/18 14:53:36;;;;;;;1.62;1.52;;;;;;;27.20;38.40;101346.43;5189894;56;1139147;-67
2022/07/18 14:58:42;;;;;;;3.75;1.72;;;;;;;27.14;39.55;101345.08;5188280;56;1138977;-67
2022/07/18 15:03:48;;;;;;;2.42;1.45;;;;;;;27.07;38.62;101339.63;5187550;56;1139032;-67
2022/07/18 15:08:54;;;;;;;3.22;2.12;;;;;;;27.05;39.85;101339.00;5166943;56;1139188;-67
2022/07/18 15:14:01;;;;;;;2.67;1.75;;;;;;;27.03;39.57;101341.63;5160917;57;1139461;-68
2022/07/18 15:19:07;;;;;;;2.95;2.25;;;;;;;26.90;39.32;101335.61;5160972;57;1139025;-67
2022/07/18 15:24:12;;;;;;;2.83;2.58;;;;;;;26.83;39.69;101340.20;5161162;57;1139091;-67
2022/07/18 15:29:18;;;;;;;4.15;2.00;;;;;;;26.86;40.34;101333.01;5160965;57;1137280;-66
2022/07/18 15:34:25;;;;;;;4.70;2.05;;;;;;;26.81;40.47;101333.62;5157638;56;1136956;-68
2022/07/18 15:39:31;;;;;;;3.77;2.35;;;;;;;26.78;41.10;101335.37;5164282;56;1136901;-67
2022/07/18 15:44:40;;;;;;;3.00;2.10;;;;;;;26.65;40.94;101339.42;5166400;56;1136990;-67
2022/07/18 15:49:46;;;;;;;2.00;1.82;;;;;;;26.68;41.91;101336.30;5175821;56;1137433;-68
2022/07/18 15:54:51;;;;;;;3.98;1.92;;;;;;;26.63;41.95;101331.48;5160739;56;1136926;-67
2022/07/18 15:59:57;;;;;;;5.67;2.12;;;;;;;26.59;42.36;101330.73;5161175;57;1136967;-68
2022/07/18 16:05:04;;;;;;;3.22;2.10;;;;;;;26.62;42.44;101327.09;5161416;56;1136975;-67
2022/07/18 16:10:10;;;;;;;4.92;2.72;;;;;;;26.48;42.32;101327.26;5214048;56;1137082;-67
2022/07/18 16:15:16;;;;;;;3.50;2.40;;;;;;;26.41;42.86;101332.68;5234330;56;1136924;-67
2022/07/18 16:20:22;;;;;;;4.60;2.30;;;;;;;26.33;43.29;101326.05;5242556;56;1136936;-67
2022/07/18 16:25:28;;;;;;;6.33;2.10;;;;;;;26.25;43.73;101325.70;5242444;56;1137014;-67
2022/07/18 16:30:35;;;;;;;5.97;2.33;;;;;;;26.21;44.04;101328.48;5242517;56;1136931;-66
2022/07/18 16:35:41;;;;;;;7.75;2.22;;;;;;;26.20;44.44;101326.81;5242360;56;1136840;-67
2022/07/18 16:40:47;;;;;;;5.55;2.08;;;;;;;26.24;44.76;101324.02;5224650;56;1137045;-67
2022/07/18 16:45:53;;;;;;;3.60;1.60;;;;;;;26.20;44.94;101334.11;5174065;56;1137173;-67
2022/07/18 16:51:01;;;;;;;6.87;2.00;;;;;;;26.12;45.52;101332.42;5189181;56;1136910;-67
2022/07/18 16:56:10;;;;;;;12.85;2.30;;;;;;;26.12;45.81;101329.70;5169960;56;1134898;-67
2022/07/18 17:01:16;;;;;;;6.26;2.92;;;;;;;26.14;46.22;101322.70;5206692;56;1141025;-69
2022/07/18 17:06:22;;;;;;;4.82;2.64;;;;;;;26.12;46.10;101323.45;5071222;56;1138980;-67
2022/07/18 17:11:28;;;;;;;4.92;3.83;;;;;;;26.05;46.44;101330.18;5169981;56;1139041;-67
2022/07/18 17:16:34;;;;;;;8.68;3.30;;;;;;;26.04;46.56;101330.38;5141041;56;1138998;-67
2022/07/18 17:21:42;;;;;;;4.20;3.47;;;;;;;26.02;46.97;101321.08;5165693;56;1139008;-67
2022/07/18 17:26:48;;;;;;;11.05;5.17;;;;;;;26.00;47.13;101316.38;5167761;56;1138971;-67
2022/07/18 17:31:54;;;;;;;14.40;5.25;;;;;;;25.94;47.49;101313.13;5199417;56;1140865;-67
2022/07/18 17:37:01;;;;;;;16.60;7.58;;;;;;;25.95;47.82;101305.84;5197295;56;1141015;-67
2022/07/18 17:42:08;;;;;;;22.77;9.83;;;;;;;25.90;48.18;101311.85;5161501;57;1141084;-67
2022/07/18 17:47:14;;;;;;;9.28;5.85;;;;;;;25.87;48.29;101321.73;5186871;56;1141116;-67
2022/07/18 17:52:20;;;;;;;29.12;5.60;;;;;;;25.77;48.36;101307.20;5165705;56;1139114;-67
2022/07/18 17:57:26;;;;;;;24.63;7.05;;;;;;;25.68;49.17;101304.30;5123132;56;1141257;-67
2022/07/18 18:02:32;;;;;;;15.80;6.37;;;;;;;25.59;50.12;101292.77;5200201;56;1141111;-67
2022/07/18 18:07:40;;;;;;;26.65;11.48;;;;;;;25.55;50.63;101296.91;5238438;56;1141069;-67
2022/07/18 18:12:46;;;;;;;14.93;6.25;;;;;;;25.45;51.17;101300.48;5155720;56;1143190;-67
2022/07/18 18:17:53;;;;;;;15.45;5.67;;;;;;;25.33;51.54;101297.17;5155734;56;1141290;-67
2022/07/18 18:22:59;;;;;;;6.03;3.33;;;;;;;25.27;51.39;101294.72;5195731;56;1141183;-67
2022/07/18 18:28:07;;;;;;;3.15;2.87;;;;;;;25.30;52.69;101293.49;5187419;56;1139188;-68
2022/07/18 18:33:12;;;;;;;3.52;3.20;;;;;;;25.31;53.13;101294.66;5188313;56;1138970;-67
2022/07/18 18:38:18;;;;;;;6.78;3.42;;;;;;;25.35;53.37;101300.52;5167464;56;1139078;-66
2022/07/18 18:43:24;;;;;;;3.42;2.62;;;;;;;25.34;53.57;101286.14;5205215;56;1139033;-65
2022/07/18 18:48:30;;;;;;;6.40;3.25;;;;;;;25.34;54.04;101279.89;5185966;56;1139089;-65
2022/07/18 18:53:36;;;;;;;6.78;3.70;;;;;;;25.28;54.20;101271.19;5217902;56;1139020;-65
2022/07/18 18:58:42;;;;;;;83.20;14.15;;;;;;;25.21;54.80;101269.25;5241610;56;1139252;-65
2022/07/18 19:03:47;;;;;;;44.40;11.68;;;;;;;25.15;54.77;101271.92;5195591;56;1143442;-66
2022/07/18 19:08:55;;;;;;;38.00;11.12;;;;;;;24.99;54.61;101277.62;5237067;56;1143117;-66
2022/07/18 19:14:02;;;;;;;32.73;11.30;;;;;;;24.92;55.11;101282.08;5244486;56;1143170;-67
2022/07/18 19:19:07;;;;;;;39.27;12.28;;;;;;;24.85;55.25;101286.94;5161670;56;1143178;-68
2022/07/18 19:24:13;;;;;;;36.13;18.00;;;;;;;24.77;55.38;101289.75;5168390;56;1143454;-67
2022/07/18 19:29:19;;;;;;;32.38;13.78;;;;;;;24.69;55.63;101283.13;5209198;56;1143059;-66
2022/07/18 19:34:25;;;;;;;41.98;11.85;;;;;;;24.60;55.73;101284.78;5183146;56;1143213;-68
2022/07/18 19:39:31;;;;;;;28.87;8.53;;;;;;;24.51;55.74;101286.27;5173923;56;1143200;-67
2022/07/18 19:44:36;;;;;;;38.20;7.78;;;;;;;24.48;56.02;101288.52;5160824;56;1140960;-68
2022/07/18 19:49:42;;;;;;;21.05;4.78;;;;;;;24.47;56.71;101290.89;5057490;57;1141164;-67
2022/07/18 19:54:48;;;;;;;9.43;3.65;;;;;;;24.46;57.21;101287.86;5042038;58;1141042;-68
2022/07/18 19:59:54;;;;;;;20.23;11.25;;;;;;;24.42;57.51;101288.78;5077813;57;1139068;-68
2022/07/18 20:05:00;;;;;;;29.77;12.75;;;;;;;24.29;57.44;101285.90;5244735;56;1143210;-67
2022/07/18 20:10:08;;;;;;;23.65;12.35;;;;;;;24.17;57.90;101276.57;5247280;56;1143449;-68
2022/07/18 20:15:13;;;;;;;43.45;24.63;;;;;;;24.09;57.58;101282.94;5144618;57;1143270;-67
2022/07/18 20:20:19;;;;;;;98.87;45.73;;;;;;;23.93;57.64;101298.52;5164245;56;1141052;-68
2022/07/18 20:25:25;;;;;;;79.77;39.40;;;;;;;23.76;58.73;101304.61;5159950;56;1141588;-68
2022/07/18 20:30:40;;;;;;;88.10;37.48;;;;;;;23.66;59.42;101290.56;5164019;56;1141112;-68
2022/07/18 20:35:42;;;;;;;44.70;23.27;;;;;;;23.70;60.38;101292.68;5150279;57;1141256;-68
2022/07/18 20:40:48;;;;;;;30.43;16.17;;;;;;;23.72;60.74;101291.98;5163874;56;1141210;-67
2022/07/18 20:45:53;;;;;;;31.65;17.00;;;;;;;23.74;60.94;101289.94;5163790;56;1141093;-67
2022/07/18 20:50:59;;;;;;;27.80;12.70;;;;;;;23.58;61.16;101293.33;5163899;57;1141229;-68
2022/07/18 20:56:07;;;;;;;18.37;7.95;;;;;;;23.23;61.96;101292.11;5132639;57;1141346;-68
2022/07/18 21:01:13;;;;;;;25.00;11.93;;;;;;;23.02;62.77;101294.17;5130270;57;1139235;-68
2022/07/18 21:06:19;;;;;;;34.48;11.85;;;;;;;23.06;63.95;101291.45;5163917;57;1141130;-68
2022/07/18 21:11:24;;;;;;;24.27;10.43;;;;;;;23.06;64.05;101296.34;5187335;56;1141086;-68
2022/07/18 21:16:30;;;;;;;26.97;11.00;;;;;;;22.94;63.73;101297.76;5181116;56;1141102;-68
2022/07/18 21:21:36;;;;;;;22.37;9.53;;;;;;;22.94;64.48;101297.76;5171355;56;1141117;-68
2022/07/18 21:26:42;;;;;;;21.77;9.85;;;;;;;22.92;64.60;101297.09;5188407;56;1139223;-68
2022/07/18 21:31:48;;;;;;;24.95;10.03;;;;;;;22.92;64.86;101294.91;5155791;57;1139185;-68
2022/07/18 21:36:54;;;;;;;23.90;8.93;;;;;;;22.93;65.24;101291.19;5155904;57;1141156;-68
2022/07/18 21:42:00;;;;;;;21.15;7.62;;;;;;;22.83;65.63;101280.66;5173686;56;1139497;-68
2022/07/18 21:47:06;;;;;;;9.63;4.80;;;;;;;22.64;65.52;101278.40;5240594;56;1136808;-68
2022/07/18 21:52:12;;;;;;;63.58;25.43;;;;;;;22.58;65.56;101269.70;5217789;56;1197321;-67
2022/07/18 21:57:19;;;;;;;74.00;30.65;;;;;;;22.39;66.06;101265.59;5251809;56;1143268;-68
2022/07/18 22:02:25;;;;;;;62.10;24.73;;;;;;;22.23;66.75;101257.09;5251538;56;1143206;-68
2022/07/18 22:07:31;;;;;;;31.13;12.47;;;;;;;22.15;67.51;101257.16;5251846;56;1143058;-67
2022/07/18 22:12:37;;;;;;;11.70;5.50;;;;;;;22.25;68.23;101265.00;5243791;56;1143120;-68
2022/07/18 22:17:43;;;;;;;8.00;4.72;;;;;;;22.31;68.42;101258.38;5225172;56;1141185;-67
2022/07/18 22:22:49;;;;;;;14.15;4.95;;;;;;;22.34;68.17;101258.03;5190555;56;1139134;-67
2022/07/18 22:27:55;;;;;;;9.03;4.05;;;;;;;22.38;67.98;101255.83;5056613;58;1141124;-68
2022/07/18 22:33:02;;;;;;;26.60;10.08;;;;;;;22.32;67.85;101255.17;5066633;57;1138998;-67
2022/07/18 22:38:10;;;;;;;36.40;14.70;;;;;;;22.24;67.81;101248.00;5066476;57;1143168;-67
2022/07/18 22:43:16;;;;;;;29.00;12.30;;;;;;;22.18;68.11;101249.20;4983716;58;1143518;-67
2022/07/18 22:48:21;;;;;;;26.73;11.50;;;;;;;22.11;68.45;101245.05;5111551;57;1143119;-68
2022/07/18 22:53:27;;;;;;;24.90;9.98;;;;;;;22.03;68.32;101243.72;5096211;57;1143431;-68
2022/07/18 22:58:34;;;;;;;41.35;15.25;;;;;;;21.98;68.48;101245.58;5130783;57;1141103;-67
2022/07/18 23:03:39;;;;;;;41.23;13.10;;;;;;;;;;5063196;58;1143160;-68
2022/07/18 23:08:44;;;;;;;34.18;13.80;;;;;;;22.00;69.16;101247.59;5071724;58;822137;-68
2022/07/18 23:13:50;;;;;;;31.75;12.30;;;;;;;22.03;69.25;101251.80;5071380;58;1141322;-67
2022/07/18 23:18:55;;;;;;;21.12;10.18;;;;;;;22.04;69.31;101239.51;5079521;58;1143457;-68